Denver, Colorado
Traffic Map
Current Weather Conditions
Denver, Colorado
Scattered Clouds
Scattered Clouds

Feels Like: 2°
Wind Chill: Ceiling: Unl
Heat Index: Visibility: 25mi
Dew Point: -1° Wind: 3mph
Humidity: 81% Direction: 90° (E)
Pressure: 29.77in Gusts: 0mph
Raw Report DataKBKF 161055Z 09003KT 25SM FEW140 SCT220 02/M01 A2977 RMK SLP042
Traffic Incident Summary
Active as of:
Severity:
Category:
InformationThere was an issue retrieving the traffic information for this location. Please try a different location or try again shortly.
Advertisements
At Last! Intellicast now available for iPhone and Android